sensor_id;sensor_type;location;lat;lon;timestamp;P1;durP1;ratioP1;P2;durP2;ratioP2
4206;SDS011;2117;47.972;7.830;2022-12-07T02:32:27;37.80;;;19.27;;
4206;SDS011;2117;47.972;7.830;2022-12-07T02:38:18;33.17;;;18.37;;
4206;SDS011;2117;47.972;7.830;2022-12-07T02:43:10;35.97;;;19.10;;
4206;SDS011;2117;47.972;7.830;2022-12-07T02:45:43;39.23;;;21.10;;
4206;SDS011;2117;47.972;7.830;2022-12-07T02:48:12;30.70;;;17.93;;
4206;SDS011;2117;47.972;7.830;2022-12-07T02:50:59;30.57;;;18.63;;
4206;SDS011;2117;47.972;7.830;2022-12-07T02:53:35;29.43;;;16.00;;
4206;SDS011;2117;47.972;7.830;2022-12-07T03:02:12;30.40;;;15.70;;
4206;SDS011;2117;47.972;7.830;2022-12-07T03:04:52;22.90;;;13.70;;
4206;SDS011;2117;47.972;7.830;2022-12-07T03:10:22;19.23;;;11.90;;
4206;SDS011;2117;47.972;7.830;2022-12-07T03:16:10;21.80;;;12.70;;
4206;SDS011;2117;47.972;7.830;2022-12-07T03:18:48;21.17;;;11.97;;
4206;SDS011;2117;47.972;7.830;2022-12-07T03:21:26;25.13;;;12.67;;
4206;SDS011;2117;47.972;7.830;2022-12-07T03:23:57;27.73;;;14.07;;
4206;SDS011;2117;47.972;7.830;2022-12-07T03:26:30;26.67;;;12.87;;
4206;SDS011;2117;47.972;7.830;2022-12-07T03:28:59;22.00;;;12.53;;
4206;SDS011;2117;47.972;7.830;2022-12-07T03:31:31;21.30;;;11.83;;
4206;SDS011;2117;47.972;7.830;2022-12-07T03:34:02;26.93;;;12.37;;
4206;SDS011;2117;47.972;7.830;2022-12-07T03:36:37;25.07;;;12.00;;
4206;SDS011;2117;47.972;7.830;2022-12-07T03:39:26;25.87;;;13.20;;
4206;SDS011;2117;47.972;7.830;2022-12-07T03:41:57;21.07;;;12.03;;
4206;SDS011;2117;47.972;7.830;2022-12-07T03:44:25;17.30;;;11.03;;
4206;SDS011;2117;47.972;7.830;2022-12-07T03:52:50;21.97;;;12.07;;
4206;SDS011;2117;47.972;7.830;2022-12-07T03:55:31;20.53;;;12.00;;
4206;SDS011;2117;47.972;7.830;2022-12-07T03:58:02;17.60;;;11.07;;
4206;SDS011;2117;47.972;7.830;2022-12-07T04:00:32;17.00;;;10.27;;
4206;SDS011;2117;47.972;7.830;2022-12-07T04:02:58;15.03;;;9.77;;
4206;SDS011;2117;47.972;7.830;2022-12-07T04:05:23;17.17;;;10.90;;
4206;SDS011;2117;47.972;7.830;2022-12-07T04:07:49;14.80;;;9.77;;
4206;SDS011;2117;47.972;7.830;2022-12-07T04:10:15;16.13;;;9.53;;
4206;SDS011;2117;47.972;7.830;2022-12-07T04:12:40;15.73;;;9.70;;
4206;SDS011;2117;47.972;7.830;2022-12-07T04:15:06;29.60;;;13.13;;
4206;SDS011;2117;47.972;7.830;2022-12-07T04:17:32;21.60;;;11.00;;
4206;SDS011;2117;47.972;7.830;2022-12-07T04:19:58;22.67;;;10.60;;
4206;SDS011;2117;47.972;7.830;2022-12-07T04:22:23;18.67;;;10.83;;
4206;SDS011;2117;47.972;7.830;2022-12-07T04:24:49;17.53;;;11.70;;
4206;SDS011;2117;47.972;7.830;2022-12-07T04:27:14;20.10;;;10.30;;
4206;SDS011;2117;47.972;7.830;2022-12-07T04:29:40;18.30;;;9.33;;
4206;SDS011;2117;47.972;7.830;2022-12-07T04:32:06;19.90;;;10.33;;
4206;SDS011;2117;47.972;7.830;2022-12-07T04:34:31;19.57;;;11.53;;
4206;SDS011;2117;47.972;7.830;2022-12-07T04:36:57;17.00;;;10.13;;
4206;SDS011;2117;47.972;7.830;2022-12-07T04:39:30;15.37;;;9.70;;
4206;SDS011;2117;47.972;7.830;2022-12-07T04:41:57;19.97;;;10.30;;
4206;SDS011;2117;47.972;7.830;2022-12-07T04:44:24;24.97;;;10.47;;
4206;SDS011;2117;47.972;7.830;2022-12-07T04:46:50;18.93;;;10.13;;
4206;SDS011;2117;47.972;7.830;2022-12-07T04:49:16;18.90;;;9.00;;
4206;SDS011;2117;47.972;7.830;2022-12-07T04:51:43;11.90;;;7.17;;
4206;SDS011;2117;47.972;7.830;2022-12-07T04:54:09;16.00;;;8.20;;
4206;SDS011;2117;47.972;7.830;2022-12-07T04:56:35;11.47;;;6.90;;
4206;SDS011;2117;47.972;7.830;2022-12-07T04:59:01;16.30;;;8.80;;
4206;SDS011;2117;47.972;7.830;2022-12-07T05:01:28;19.40;;;9.47;;
4206;SDS011;2117;47.972;7.830;2022-12-07T05:03:53;16.73;;;7.73;;
4206;SDS011;2117;47.972;7.830;2022-12-07T05:06:19;14.93;;;7.97;;
4206;SDS011;2117;47.972;7.830;2022-12-07T05:08:45;13.57;;;7.10;;
4206;SDS011;2117;47.972;7.830;2022-12-07T05:11:11;13.40;;;6.90;;
4206;SDS011;2117;47.972;7.830;2022-12-07T05:14:00;13.40;;;6.97;;
4206;SDS011;2117;47.972;7.830;2022-12-07T05:16:26;9.87;;;5.80;;
4206;SDS011;2117;47.972;7.830;2022-12-07T05:18:52;10.10;;;6.90;;
4206;SDS011;2117;47.972;7.830;2022-12-07T05:21:18;12.70;;;7.40;;
4206;SDS011;2117;47.972;7.830;2022-12-07T05:23:43;8.60;;;5.50;;
4206;SDS011;2117;47.972;7.830;2022-12-07T05:26:09;11.50;;;6.47;;
4206;SDS011;2117;47.972;7.830;2022-12-07T05:28:35;10.90;;;6.43;;
4206;SDS011;2117;47.972;7.830;2022-12-07T05:31:00;11.10;;;7.47;;
4206;SDS011;2117;47.972;7.830;2022-12-07T05:33:26;11.47;;;7.17;;
4206;SDS011;2117;47.972;7.830;2022-12-07T05:35:51;16.73;;;6.13;;
4206;SDS011;2117;47.972;7.830;2022-12-07T05:38:17;9.80;;;5.97;;
4206;SDS011;2117;47.972;7.830;2022-12-07T05:40:42;9.53;;;5.27;;
4206;SDS011;2117;47.972;7.830;2022-12-07T05:43:08;11.23;;;5.13;;
4206;SDS011;2117;47.972;7.830;2022-12-07T05:45:34;7.80;;;4.83;;
4206;SDS011;2117;47.972;7.830;2022-12-07T05:47:59;7.90;;;4.80;;
4206;SDS011;2117;47.972;7.830;2022-12-07T05:50:25;7.40;;;5.47;;
4206;SDS011;2117;47.972;7.830;2022-12-07T05:52:50;7.43;;;4.33;;
4206;SDS011;2117;47.972;7.830;2022-12-07T05:55:16;31.17;;;4.63;;
4206;SDS011;2117;47.972;7.830;2022-12-07T05:57:41;7.73;;;4.70;;
4206;SDS011;2117;47.972;7.830;2022-12-07T06:00:27;6.73;;;4.00;;
4206;SDS011;2117;47.972;7.830;2022-12-07T06:02:52;6.53;;;3.70;;
4206;SDS011;2117;47.972;7.830;2022-12-07T06:05:18;5.10;;;3.40;;
4206;SDS011;2117;47.972;7.830;2022-12-07T06:07:43;6.73;;;2.73;;
4206;SDS011;2117;47.972;7.830;2022-12-07T06:10:09;5.30;;;3.10;;
4206;SDS011;2117;47.972;7.830;2022-12-07T06:12:35;7.37;;;3.27;;
4206;SDS011;2117;47.972;7.830;2022-12-07T06:15:00;4.80;;;2.97;;
4206;SDS011;2117;47.972;7.830;2022-12-07T06:17:26;5.50;;;3.30;;
4206;SDS011;2117;47.972;7.830;2022-12-07T06:19:52;6.83;;;2.80;;
4206;SDS011;2117;47.972;7.830;2022-12-07T06:22:17;5.33;;;3.37;;
4206;SDS011;2117;47.972;7.830;2022-12-07T06:24:43;5.60;;;3.37;;
4206;SDS011;2117;47.972;7.830;2022-12-07T06:27:09;5.03;;;3.10;;
4206;SDS011;2117;47.972;7.830;2022-12-07T06:29:35;4.60;;;2.57;;
4206;SDS011;2117;47.972;7.830;2022-12-07T06:32:00;7.50;;;3.30;;
4206;SDS011;2117;47.972;7.830;2022-12-07T06:34:26;5.00;;;3.03;;
4206;SDS011;2117;47.972;7.830;2022-12-07T06:36:52;6.50;;;3.50;;
4206;SDS011;2117;47.972;7.830;2022-12-07T06:39:21;7.03;;;3.73;;
4206;SDS011;2117;47.972;7.830;2022-12-07T06:41:48;7.90;;;4.30;;
4206;SDS011;2117;47.972;7.830;2022-12-07T06:44:14;8.67;;;5.03;;
4206;SDS011;2117;47.972;7.830;2022-12-07T06:46:39;7.03;;;5.43;;
4206;SDS011;2117;47.972;7.830;2022-12-07T06:49:05;6.73;;;3.33;;
4206;SDS011;2117;47.972;7.830;2022-12-07T06:51:32;6.60;;;4.30;;
4206;SDS011;2117;47.972;7.830;2022-12-07T06:53:58;5.33;;;3.60;;
4206;SDS011;2117;47.972;7.830;2022-12-07T06:56:23;8.30;;;4.57;;
4206;SDS011;2117;47.972;7.830;2022-12-07T06:58:49;6.20;;;3.03;;
4206;SDS011;2117;47.972;7.830;2022-12-07T07:01:16;6.20;;;3.43;;
4206;SDS011;2117;47.972;7.830;2022-12-07T07:03:43;5.40;;;3.57;;
4206;SDS011;2117;47.972;7.830;2022-12-07T07:06:10;3.80;;;2.67;;
4206;SDS011;2117;47.972;7.830;2022-12-07T07:08:36;3.97;;;3.00;;
4206;SDS011;2117;47.972;7.830;2022-12-07T07:11:03;4.00;;;3.07;;
4206;SDS011;2117;47.972;7.830;2022-12-07T07:13:29;5.23;;;2.93;;
4206;SDS011;2117;47.972;7.830;2022-12-07T07:15:55;5.57;;;2.87;;
4206;SDS011;2117;47.972;7.830;2022-12-07T07:18:20;4.80;;;2.83;;
4206;SDS011;2117;47.972;7.830;2022-12-07T07:20:46;4.47;;;3.20;;
4206;SDS011;2117;47.972;7.830;2022-12-07T07:23:12;9.73;;;4.43;;
4206;SDS011;2117;47.972;7.830;2022-12-07T07:25:38;7.10;;;4.33;;
4206;SDS011;2117;47.972;7.830;2022-12-07T07:28:04;9.20;;;5.20;;
4206;SDS011;2117;47.972;7.830;2022-12-07T07:30:30;9.30;;;4.17;;
4206;SDS011;2117;47.972;7.830;2022-12-07T07:32:59;8.17;;;3.93;;
4206;SDS011;2117;47.972;7.830;2022-12-07T07:35:26;9.13;;;4.33;;
4206;SDS011;2117;47.972;7.830;2022-12-07T07:37:52;13.93;;;10.07;;
4206;SDS011;2117;47.972;7.830;2022-12-07T07:40:18;24.67;;;12.70;;
4206;SDS011;2117;47.972;7.830;2022-12-07T07:42:43;16.80;;;9.90;;
4206;SDS011;2117;47.972;7.830;2022-12-07T07:45:11;24.03;;;8.70;;
4206;SDS011;2117;47.972;7.830;2022-12-07T07:47:37;16.50;;;9.13;;
4206;SDS011;2117;47.972;7.830;2022-12-07T07:50:02;10.83;;;6.60;;
4206;SDS011;2117;47.972;7.830;2022-12-07T07:52:28;10.47;;;6.57;;
4206;SDS011;2117;47.972;7.830;2022-12-07T07:54:54;10.50;;;7.07;;
4206;SDS011;2117;47.972;7.830;2022-12-07T07:57:19;10.20;;;6.33;;
4206;SDS011;2117;47.972;7.830;2022-12-07T07:59:45;9.50;;;7.10;;
4206;SDS011;2117;47.972;7.830;2022-12-07T08:02:14;10.60;;;7.50;;
4206;SDS011;2117;47.972;7.830;2022-12-07T08:04:41;10.20;;;7.80;;
4206;SDS011;2117;47.972;7.830;2022-12-07T08:07:07;15.13;;;8.50;;
4206;SDS011;2117;47.972;7.830;2022-12-07T08:09:33;9.00;;;5.60;;
4206;SDS011;2117;47.972;7.830;2022-12-07T08:11:58;9.23;;;5.73;;
4206;SDS011;2117;47.972;7.830;2022-12-07T08:14:24;10.60;;;6.40;;
4206;SDS011;2117;47.972;7.830;2022-12-07T08:16:50;8.27;;;6.03;;
4206;SDS011;2117;47.972;7.830;2022-12-07T08:19:16;11.33;;;6.43;;
4206;SDS011;2117;47.972;7.830;2022-12-07T08:21:41;13.00;;;5.67;;
4206;SDS011;2117;47.972;7.830;2022-12-07T08:24:07;9.30;;;5.60;;
4206;SDS011;2117;47.972;7.830;2022-12-07T08:26:33;10.60;;;6.33;;
4206;SDS011;2117;47.972;7.830;2022-12-07T08:28:58;10.83;;;5.80;;
4206;SDS011;2117;47.972;7.830;2022-12-07T08:31:24;11.60;;;7.30;;
4206;SDS011;2117;47.972;7.830;2022-12-07T08:33:50;9.33;;;5.90;;
4206;SDS011;2117;47.972;7.830;2022-12-07T08:36:16;12.77;;;6.27;;
4206;SDS011;2117;47.972;7.830;2022-12-07T08:38:42;10.13;;;5.90;;
4206;SDS011;2117;47.972;7.830;2022-12-07T08:41:08;9.13;;;5.83;;
4206;SDS011;2117;47.972;7.830;2022-12-07T08:43:34;7.83;;;5.40;;
4206;SDS011;2117;47.972;7.830;2022-12-07T08:46:11;13.00;;;8.30;;
4206;SDS011;2117;47.972;7.830;2022-12-07T08:48:46;16.00;;;9.50;;
4206;SDS011;2117;47.972;7.830;2022-12-07T08:51:17;20.77;;;10.90;;
4206;SDS011;2117;47.972;7.830;2022-12-07T08:53:43;17.03;;;9.20;;
4206;SDS011;2117;47.972;7.830;2022-12-07T08:56:09;17.00;;;9.00;;
4206;SDS011;2117;47.972;7.830;2022-12-07T08:58:35;14.63;;;7.90;;
4206;SDS011;2117;47.972;7.830;2022-12-07T09:01:03;10.70;;;7.07;;
4206;SDS011;2117;47.972;7.830;2022-12-07T09:03:29;13.97;;;8.37;;
4206;SDS011;2117;47.972;7.830;2022-12-07T09:05:55;13.33;;;7.13;;
4206;SDS011;2117;47.972;7.830;2022-12-07T09:08:22;7.77;;;5.83;;
4206;SDS011;2117;47.972;7.830;2022-12-07T09:10:54;9.97;;;7.13;;
4206;SDS011;2117;47.972;7.830;2022-12-07T09:13:19;9.60;;;5.83;;
4206;SDS011;2117;47.972;7.830;2022-12-07T09:15:45;8.07;;;4.60;;
4206;SDS011;2117;47.972;7.830;2022-12-07T09:18:10;5.67;;;3.83;;
4206;SDS011;2117;47.972;7.830;2022-12-07T09:20:36;8.70;;;4.10;;
4206;SDS011;2117;47.972;7.830;2022-12-07T09:23:01;6.17;;;4.63;;
4206;SDS011;2117;47.972;7.830;2022-12-07T09:25:27;6.73;;;5.17;;
4206;SDS011;2117;47.972;7.830;2022-12-07T09:27:56;7.60;;;5.50;;
4206;SDS011;2117;47.972;7.830;2022-12-07T09:30:22;7.10;;;5.47;;
4206;SDS011;2117;47.972;7.830;2022-12-07T09:32:48;6.33;;;4.53;;
4206;SDS011;2117;47.972;7.830;2022-12-07T09:35:13;5.50;;;3.23;;
4206;SDS011;2117;47.972;7.830;2022-12-07T09:37:39;5.17;;;3.73;;
4206;SDS011;2117;47.972;7.830;2022-12-07T09:40:05;4.87;;;3.27;;
4206;SDS011;2117;47.972;7.830;2022-12-07T09:42:41;3.90;;;2.60;;
4206;SDS011;2117;47.972;7.830;2022-12-07T09:45:12;6.30;;;3.63;;
4206;SDS011;2117;47.972;7.830;2022-12-07T09:47:49;6.70;;;3.33;;
4206;SDS011;2117;47.972;7.830;2022-12-07T09:50:16;6.40;;;3.30;;
4206;SDS011;2117;47.972;7.830;2022-12-07T09:52:48;4.60;;;3.30;;
4206;SDS011;2117;47.972;7.830;2022-12-07T09:55:15;5.87;;;3.97;;
4206;SDS011;2117;47.972;7.830;2022-12-07T09:57:46;4.73;;;3.17;;
4206;SDS011;2117;47.972;7.830;2022-12-07T10:00:13;6.27;;;3.40;;
4206;SDS011;2117;47.972;7.830;2022-12-07T10:02:42;5.30;;;3.47;;
4206;SDS011;2117;47.972;7.830;2022-12-07T10:05:14;6.97;;;4.00;;
4206;SDS011;2117;47.972;7.830;2022-12-07T10:07:43;5.87;;;3.90;;
4206;SDS011;2117;47.972;7.830;2022-12-07T10:10:15;6.30;;;3.83;;
4206;SDS011;2117;47.972;7.830;2022-12-07T10:12:54;5.50;;;3.90;;
4206;SDS011;2117;47.972;7.830;2022-12-07T10:15:42;11.80;;;8.57;;
4206;SDS011;2117;47.972;7.830;2022-12-07T10:18:18;10.70;;;7.00;;
4206;SDS011;2117;47.972;7.830;2022-12-07T10:20:59;8.60;;;5.83;;
4206;SDS011;2117;47.972;7.830;2022-12-07T10:23:32;6.47;;;4.20;;
4206;SDS011;2117;47.972;7.830;2022-12-07T10:25:58;5.77;;;4.00;;
4206;SDS011;2117;47.972;7.830;2022-12-07T10:28:27;6.90;;;4.63;;
4206;SDS011;2117;47.972;7.830;2022-12-07T10:31:01;4.93;;;3.70;;
4206;SDS011;2117;47.972;7.830;2022-12-07T10:33:48;4.90;;;3.30;;
4206;SDS011;2117;47.972;7.830;2022-12-07T10:36:27;4.10;;;3.03;;
4206;SDS011;2117;47.972;7.830;2022-12-07T10:39:13;4.90;;;3.30;;
4206;SDS011;2117;47.972;7.830;2022-12-07T10:44:25;5.17;;;2.73;;
4206;SDS011;2117;47.972;7.830;2022-12-07T10:58:31;3.83;;;2.73;;
4206;SDS011;2117;47.972;7.830;2022-12-07T11:09:42;4.40;;;3.00;;
4206;SDS011;2117;47.972;7.830;2022-12-07T11:12:27;5.33;;;3.27;;
4206;SDS011;2117;47.972;7.830;2022-12-07T11:17:56;4.27;;;2.77;;
4206;SDS011;2117;47.972;7.830;2022-12-07T11:20:54;4.53;;;3.37;;
4206;SDS011;2117;47.972;7.830;2022-12-07T11:37:33;5.90;;;3.40;;
4206;SDS011;2117;47.972;7.830;2022-12-07T11:46:00;4.80;;;3.10;;
4206;SDS011;2117;47.972;7.830;2022-12-07T11:51:12;5.80;;;2.87;;
4206;SDS011;2117;47.972;7.830;2022-12-07T11:56:15;4.60;;;2.83;;
4206;SDS011;2117;47.972;7.830;2022-12-07T12:03:40;4.67;;;2.03;;
4206;SDS011;2117;47.972;7.830;2022-12-07T12:06:20;4.17;;;1.97;;
4206;SDS011;2117;47.972;7.830;2022-12-07T12:08:54;4.80;;;2.83;;
4206;SDS011;2117;47.972;7.830;2022-12-07T12:20:20;5.57;;;4.00;;
4206;SDS011;2117;47.972;7.830;2022-12-07T12:23:09;6.10;;;4.13;;
4206;SDS011;2117;47.972;7.830;2022-12-07T12:25:47;4.30;;;3.13;;
4206;SDS011;2117;47.972;7.830;2022-12-07T12:28:20;7.10;;;3.80;;
4206;SDS011;2117;47.972;7.830;2022-12-07T12:31:06;5.13;;;3.47;;
4206;SDS011;2117;47.972;7.830;2022-12-07T12:33:32;5.50;;;3.27;;
4206;SDS011;2117;47.972;7.830;2022-12-07T12:39:14;4.90;;;3.23;;
4206;SDS011;2117;47.972;7.830;2022-12-07T12:47:02;7.50;;;4.40;;
4206;SDS011;2117;47.972;7.830;2022-12-07T12:57:33;7.33;;;4.47;;
4206;SDS011;2117;47.972;7.830;2022-12-07T13:00:01;8.80;;;4.90;;
4206;SDS011;2117;47.972;7.830;2022-12-07T13:12:55;19.43;;;5.57;;
4206;SDS011;2117;47.972;7.830;2022-12-07T13:20:56;5.37;;;3.90;;
4206;SDS011;2117;47.972;7.830;2022-12-07T13:31:43;17.13;;;3.90;;
4206;SDS011;2117;47.972;7.830;2022-12-07T13:34:33;3.97;;;3.10;;
4206;SDS011;2117;47.972;7.830;2022-12-07T13:37:14;27.33;;;17.97;;
4206;SDS011;2117;47.972;7.830;2022-12-07T13:42:34;10.20;;;7.80;;
4206;SDS011;2117;47.972;7.830;2022-12-07T13:45:13;26.10;;;15.27;;
4206;SDS011;2117;47.972;7.830;2022-12-07T13:48:08;17.27;;;14.00;;
4206;SDS011;2117;47.972;7.830;2022-12-07T13:50:39;7.43;;;4.57;;
4206;SDS011;2117;47.972;7.830;2022-12-07T13:53:07;12.43;;;4.40;;
4206;SDS011;2117;47.972;7.830;2022-12-07T13:55:38;7.83;;;4.10;;
4206;SDS011;2117;47.972;7.830;2022-12-07T13:58:10;9.77;;;4.93;;
4206;SDS011;2117;47.972;7.830;2022-12-07T14:00:35;7.50;;;4.57;;
4206;SDS011;2117;47.972;7.830;2022-12-07T14:05:52;7.40;;;4.90;;
4206;SDS011;2117;47.972;7.830;2022-12-07T14:08:29;12.63;;;5.00;;
4206;SDS011;2117;47.972;7.830;2022-12-07T14:10:56;9.10;;;3.93;;
4206;SDS011;2117;47.972;7.830;2022-12-07T14:16:03;7.80;;;5.20;;
4206;SDS011;2117;47.972;7.830;2022-12-07T14:18:41;6.83;;;4.80;;
4206;SDS011;2117;47.972;7.830;2022-12-07T14:23:35;10.60;;;5.10;;
4206;SDS011;2117;47.972;7.830;2022-12-07T14:26:12;5.47;;;3.90;;
4206;SDS011;2117;47.972;7.830;2022-12-07T14:28:45;7.00;;;4.47;;
4206;SDS011;2117;47.972;7.830;2022-12-07T14:31:15;7.50;;;4.97;;
4206;SDS011;2117;47.972;7.830;2022-12-07T14:33:42;7.77;;;4.63;;
4206;SDS011;2117;47.972;7.830;2022-12-07T14:36:13;7.37;;;4.40;;
4206;SDS011;2117;47.972;7.830;2022-12-07T14:38:39;5.87;;;4.50;;
4206;SDS011;2117;47.972;7.830;2022-12-07T14:41:15;5.60;;;4.53;;
4206;SDS011;2117;47.972;7.830;2022-12-07T14:44:11;8.20;;;4.00;;
4206;SDS011;2117;47.972;7.830;2022-12-07T14:46:37;6.17;;;3.80;;
4206;SDS011;2117;47.972;7.830;2022-12-07T14:49:03;7.70;;;4.53;;
4206;SDS011;2117;47.972;7.830;2022-12-07T14:51:28;13.57;;;7.33;;
4206;SDS011;2117;47.972;7.830;2022-12-07T14:53:54;8.33;;;4.73;;
4206;SDS011;2117;47.972;7.830;2022-12-07T14:56:20;6.10;;;3.90;;
4206;SDS011;2117;47.972;7.830;2022-12-07T14:58:45;6.93;;;3.90;;
4206;SDS011;2117;47.972;7.830;2022-12-07T15:01:13;7.47;;;4.27;;
4206;SDS011;2117;47.972;7.830;2022-12-07T15:03:39;5.53;;;3.47;;
4206;SDS011;2117;47.972;7.830;2022-12-07T15:06:05;7.33;;;4.50;;
4206;SDS011;2117;47.972;7.830;2022-12-07T15:08:31;6.77;;;4.40;;
4206;SDS011;2117;47.972;7.830;2022-12-07T15:10:57;7.10;;;4.63;;
4206;SDS011;2117;47.972;7.830;2022-12-07T15:13:22;7.00;;;4.73;;
4206;SDS011;2117;47.972;7.830;2022-12-07T15:16:13;9.20;;;5.27;;
4206;SDS011;2117;47.972;7.830;2022-12-07T15:18:44;9.03;;;5.07;;
4206;SDS011;2117;47.972;7.830;2022-12-07T15:21:16;9.63;;;5.10;;
4206;SDS011;2117;47.972;7.830;2022-12-07T15:23:41;9.37;;;6.03;;
4206;SDS011;2117;47.972;7.830;2022-12-07T15:26:09;8.50;;;5.13;;
4206;SDS011;2117;47.972;7.830;2022-12-07T15:28:35;10.23;;;5.43;;
4206;SDS011;2117;47.972;7.830;2022-12-07T15:31:01;8.73;;;4.90;;
4206;SDS011;2117;47.972;7.830;2022-12-07T15:33:26;10.70;;;5.37;;
4206;SDS011;2117;47.972;7.830;2022-12-07T15:35:52;8.47;;;4.63;;
4206;SDS011;2117;47.972;7.830;2022-12-07T15:38:17;10.67;;;5.80;;
4206;SDS011;2117;47.972;7.830;2022-12-07T15:40:46;9.23;;;5.33;;
4206;SDS011;2117;47.972;7.830;2022-12-07T15:43:12;7.77;;;5.37;;
4206;SDS011;2117;47.972;7.830;2022-12-07T15:45:56;10.50;;;6.13;;
4206;SDS011;2117;47.972;7.830;2022-12-07T15:48:22;8.93;;;5.50;;
4206;SDS011;2117;47.972;7.830;2022-12-07T15:50:47;11.00;;;6.53;;
4206;SDS011;2117;47.972;7.830;2022-12-07T15:53:13;9.33;;;5.87;;
4206;SDS011;2117;47.972;7.830;2022-12-07T15:55:39;11.87;;;6.47;;
4206;SDS011;2117;47.972;7.830;2022-12-07T15:58:05;16.17;;;7.80;;
4206;SDS011;2117;47.972;7.830;2022-12-07T16:00:31;15.13;;;6.93;;
4206;SDS011;2117;47.972;7.830;2022-12-07T16:02:57;12.13;;;7.53;;
4206;SDS011;2117;47.972;7.830;2022-12-07T16:05:22;12.93;;;7.37;;
4206;SDS011;2117;47.972;7.830;2022-12-07T16:07:48;13.80;;;7.13;;
4206;SDS011;2117;47.972;7.830;2022-12-07T16:10:14;12.97;;;6.90;;
4206;SDS011;2117;47.972;7.830;2022-12-07T16:12:39;14.63;;;6.90;;
4206;SDS011;2117;47.972;7.830;2022-12-07T16:15:05;14.43;;;8.57;;
4206;SDS011;2117;47.972;7.830;2022-12-07T16:17:31;17.13;;;8.37;;
4206;SDS011;2117;47.972;7.830;2022-12-07T16:19:57;19.00;;;9.70;;
4206;SDS011;2117;47.972;7.830;2022-12-07T16:22:23;18.67;;;11.17;;
4206;SDS011;2117;47.972;7.830;2022-12-07T16:24:48;14.97;;;9.03;;
4206;SDS011;2117;47.972;7.830;2022-12-07T16:27:14;16.80;;;9.10;;
4206;SDS011;2117;47.972;7.830;2022-12-07T16:29:40;14.40;;;7.93;;
4206;SDS011;2117;47.972;7.830;2022-12-07T16:32:05;22.17;;;14.13;;
4206;SDS011;2117;47.972;7.830;2022-12-07T16:34:31;35.37;;;24.73;;
4206;SDS011;2117;47.972;7.830;2022-12-07T16:36:57;32.10;;;19.37;;
4206;SDS011;2117;47.972;7.830;2022-12-07T16:39:22;27.30;;;14.80;;
4206;SDS011;2117;47.972;7.830;2022-12-07T16:41:49;29.00;;;15.23;;
4206;SDS011;2117;47.972;7.830;2022-12-07T16:44:14;25.33;;;15.10;;
4206;SDS011;2117;47.972;7.830;2022-12-07T16:46:41;35.87;;;16.00;;
4206;SDS011;2117;47.972;7.830;2022-12-07T16:49:10;29.33;;;16.60;;
4206;SDS011;2117;47.972;7.830;2022-12-07T16:51:37;42.43;;;23.70;;
4206;SDS011;2117;47.972;7.830;2022-12-07T16:54:03;22.87;;;14.37;;
4206;SDS011;2117;47.972;7.830;2022-12-07T16:56:29;64.77;;;35.47;;
4206;SDS011;2117;47.972;7.830;2022-12-07T16:58:54;59.50;;;32.80;;
4206;SDS011;2117;47.972;7.830;2022-12-07T17:01:22;50.60;;;28.80;;
4206;SDS011;2117;47.972;7.830;2022-12-07T17:03:48;35.83;;;21.40;;
4206;SDS011;2117;47.972;7.830;2022-12-07T17:06:18;19.97;;;12.17;;
4206;SDS011;2117;47.972;7.830;2022-12-07T17:08:46;31.30;;;17.60;;
4206;SDS011;2117;47.972;7.830;2022-12-07T17:11:16;39.67;;;22.27;;
4206;SDS011;2117;47.972;7.830;2022-12-07T17:13:43;44.60;;;27.80;;
4206;SDS011;2117;47.972;7.830;2022-12-07T17:16:28;45.83;;;26.03;;
4206;SDS011;2117;47.972;7.830;2022-12-07T17:18:54;41.50;;;21.57;;
4206;SDS011;2117;47.972;7.830;2022-12-07T17:21:20;24.17;;;16.07;;
4206;SDS011;2117;47.972;7.830;2022-12-07T17:23:45;25.53;;;17.33;;
4206;SDS011;2117;47.972;7.830;2022-12-07T17:26:13;17.80;;;11.60;;
4206;SDS011;2117;47.972;7.830;2022-12-07T17:28:40;15.17;;;8.87;;
4206;SDS011;2117;47.972;7.830;2022-12-07T17:31:07;17.27;;;11.63;;
4206;SDS011;2117;47.972;7.830;2022-12-07T17:33:34;14.13;;;8.67;;
4206;SDS011;2117;47.972;7.830;2022-12-07T17:36:01;8.90;;;6.43;;
4206;SDS011;2117;47.972;7.830;2022-12-07T17:38:47;9.00;;;6.00;;
4206;SDS011;2117;47.972;7.830;2022-12-07T17:41:15;15.70;;;8.03;;
4206;SDS011;2117;47.972;7.830;2022-12-07T17:44:03;51.33;;;25.93;;
4206;SDS011;2117;47.972;7.830;2022-12-07T17:46:30;59.20;;;27.83;;
4206;SDS011;2117;47.972;7.830;2022-12-07T17:48:57;57.13;;;25.63;;
4206;SDS011;2117;47.972;7.830;2022-12-07T17:51:23;79.43;;;51.67;;
4206;SDS011;2117;47.972;7.830;2022-12-07T17:54:08;46.47;;;31.47;;
4206;SDS011;2117;47.972;7.830;2022-12-07T17:56:34;27.80;;;15.30;;
4206;SDS011;2117;47.972;7.830;2022-12-07T17:59:00;36.00;;;25.40;;
4206;SDS011;2117;47.972;7.830;2022-12-07T18:01:26;100.37;;;54.83;;
4206;SDS011;2117;47.972;7.830;2022-12-07T18:03:52;38.90;;;19.57;;
4206;SDS011;2117;47.972;7.830;2022-12-07T18:06:18;25.90;;;17.07;;
4206;SDS011;2117;47.972;7.830;2022-12-07T18:08:43;22.03;;;16.07;;
4206;SDS011;2117;47.972;7.830;2022-12-07T18:11:09;18.50;;;10.87;;
4206;SDS011;2117;47.972;7.830;2022-12-07T18:13:35;16.27;;;11.33;;
4206;SDS011;2117;47.972;7.830;2022-12-07T18:16:01;16.77;;;10.10;;
4206;SDS011;2117;47.972;7.830;2022-12-07T18:18:35;21.20;;;9.83;;
4206;SDS011;2117;47.972;7.830;2022-12-07T18:21:03;17.53;;;10.53;;
4206;SDS011;2117;47.972;7.830;2022-12-07T18:23:29;18.17;;;10.07;;
4206;SDS011;2117;47.972;7.830;2022-12-07T18:25:55;14.23;;;9.50;;
4206;SDS011;2117;47.972;7.830;2022-12-07T18:28:21;15.70;;;8.93;;
4206;SDS011;2117;47.972;7.830;2022-12-07T18:30:46;10.90;;;8.30;;
4206;SDS011;2117;47.972;7.830;2022-12-07T18:33:15;16.60;;;9.87;;
4206;SDS011;2117;47.972;7.830;2022-12-07T18:35:42;11.93;;;7.43;;
4206;SDS011;2117;47.972;7.830;2022-12-07T18:38:07;16.03;;;6.53;;
4206;SDS011;2117;47.972;7.830;2022-12-07T18:40:36;13.20;;;7.20;;
4206;SDS011;2117;47.972;7.830;2022-12-07T18:43:02;12.20;;;7.57;;
4206;SDS011;2117;47.972;7.830;2022-12-07T18:45:28;11.20;;;6.80;;
4206;SDS011;2117;47.972;7.830;2022-12-07T18:47:54;12.60;;;7.03;;
4206;SDS011;2117;47.972;7.830;2022-12-07T18:50:19;11.50;;;6.30;;
4206;SDS011;2117;47.972;7.830;2022-12-07T18:52:46;15.93;;;6.57;;
4206;SDS011;2117;47.972;7.830;2022-12-07T18:55:11;14.67;;;7.93;;
4206;SDS011;2117;47.972;7.830;2022-12-07T18:57:37;12.63;;;8.97;;
4206;SDS011;2117;47.972;7.830;2022-12-07T19:00:03;15.97;;;7.90;;
4206;SDS011;2117;47.972;7.830;2022-12-07T19:02:29;16.80;;;8.90;;
4206;SDS011;2117;47.972;7.830;2022-12-07T19:04:55;16.17;;;8.80;;
4206;SDS011;2117;47.972;7.830;2022-12-07T19:07:20;15.90;;;10.00;;
4206;SDS011;2117;47.972;7.830;2022-12-07T19:09:46;21.93;;;13.90;;
4206;SDS011;2117;47.972;7.830;2022-12-07T19:12:13;32.93;;;20.20;;
4206;SDS011;2117;47.972;7.830;2022-12-07T19:14:39;28.40;;;15.03;;
4206;SDS011;2117;47.972;7.830;2022-12-07T19:17:06;29.47;;;16.63;;
4206;SDS011;2117;47.972;7.830;2022-12-07T19:19:41;21.80;;;13.90;;
4206;SDS011;2117;47.972;7.830;2022-12-07T19:22:09;34.73;;;17.90;;
4206;SDS011;2117;47.972;7.830;2022-12-07T19:24:36;30.03;;;16.43;;
4206;SDS011;2117;47.972;7.830;2022-12-07T19:27:03;32.27;;;16.67;;
4206;SDS011;2117;47.972;7.830;2022-12-07T19:29:31;35.70;;;16.70;;
4206;SDS011;2117;47.972;7.830;2022-12-07T19:31:58;26.50;;;15.03;;
4206;SDS011;2117;47.972;7.830;2022-12-07T19:34:24;29.93;;;13.67;;
4206;SDS011;2117;47.972;7.830;2022-12-07T19:36:50;25.67;;;14.37;;
4206;SDS011;2117;47.972;7.830;2022-12-07T19:39:15;25.43;;;12.40;;
4206;SDS011;2117;47.972;7.830;2022-12-07T19:41:44;22.60;;;13.13;;
4206;SDS011;2117;47.972;7.830;2022-12-07T19:44:12;27.40;;;16.80;;
4206;SDS011;2117;47.972;7.830;2022-12-07T19:46:40;28.73;;;17.50;;
4206;SDS011;2117;47.972;7.830;2022-12-07T19:49:06;23.13;;;13.77;;
4206;SDS011;2117;47.972;7.830;2022-12-07T19:51:32;12.30;;;7.87;;
4206;SDS011;2117;47.972;7.830;2022-12-07T19:53:59;13.07;;;9.20;;
4206;SDS011;2117;47.972;7.830;2022-12-07T19:56:26;11.70;;;7.57;;
4206;SDS011;2117;47.972;7.830;2022-12-07T19:58:53;11.80;;;7.07;;
4206;SDS011;2117;47.972;7.830;2022-12-07T20:01:19;10.93;;;7.43;;
4206;SDS011;2117;47.972;7.830;2022-12-07T20:03:46;10.37;;;6.37;;